Uraga Maru — JD2163 — position and weather

sailwx.info

Track history (hours):
 
Tides and Currents Weather Stations Pressure Air Temp Water Temp Dewpoint Dewpoint Depression Visibility Wind Speed Wind Dir Waves Ship Positions

Uraga Maru

Last reported at 2016-Dec-08 19:33 UTC. Time now 2016-Dec-08 20:13 UTC.
Position N 35°17' E 139°41'.

Length 40 m; draft 2.8 m.

Type: Tug. MMSI: 431101119.

Date/timePositionNaut miles runAvg speedWind from/ knotsBaromVisibWave heightAir tempDewpointWater temp
2016-Dec-08 19:33N 35°17' E 139°41'0 0.0
2016-Dec-08 18:33N 35°17' E 139°41'0 0.0
2016-Dec-08 17:33N 35°17' E 139°41'0 0.0
2016-Dec-08 16:33N 35°17' E 139°41'0 0.0
2016-Dec-08 15:33N 35°17' E 139°41'0 0.0
2016-Dec-08 14:33N 35°17' E 139°41'0 0.0
2016-Dec-08 13:33N 35°17' E 139°41'0 0.0
2016-Dec-08 12:33N 35°17' E 139°41'0 0.0
2016-Dec-08 11:32N 35°17' E 139°41'0 0.0
2016-Dec-08 10:33N 35°17' E 139°41'0 0.0
2016-Dec-08 09:32N 35°17' E 139°41'0 0.0
2016-Dec-08 08:33N 35°17' E 139°41'0 0.0
2016-Dec-08 07:33N 35°17' E 139°41'0 0.0
2016-Dec-08 06:33N 35°17' E 139°41'0 0.0
2016-Dec-08 05:33N 35°17' E 139°41'0 0.0
2016-Dec-08 04:33N 35°17' E 139°41'0 0.0
2016-Dec-08 03:33N 35°17' E 139°41'0 0.0
2016-Dec-08 02:33N 35°17' E 139°41'7 6.7
2016-Dec-08 01:33N 35°23' E 139°44'6 5.0
2016-Dec-08 00:18N 35°27' E 139°50'810.6
2016-Dec-07 23:33N 35°21' E 139°45'7 5.0
2016-Dec-07 22:06N 35°14' E 139°46'611.1
2016-Dec-07 21:32N 35°19' E 139°42'4 4.0
2016-Dec-07 20:33N 35°22' E 139°45'1212.0
2016-Dec-07 19:33N 35°10' E 139°47'4 1.0
2016-Dec-07 15:07N 35°13' E 139°43'3 5.2
2016-Dec-07 14:32N 35°14' E 139°46'1010.6
2016-Dec-07 13:34N 35°24' E 139°44'1 1.3
2016-Dec-07 12:34N 35°23' E 139°44'5 5.4
2016-Dec-07 11:34N 35°19' E 139°40'2 1.7
2016-Dec-07 10:33N 35°18' E 139°42'5 0.1
2016-Dec-05 17:33N 35°23' E 139°42'6 1.9
2016-Dec-05 14:32N 35°24' E 139°49'6 1.1
2016-Dec-05 08:29N 35°23' E 139°41'1 1.2
2016-Dec-05 07:31N 35°23' E 139°40'0 0.0
2016-Dec-05 06:33N 35°23' E 139°40'2 0.9
2016-Dec-05 04:33N 35°23' E 139°42'3 2.7
2016-Dec-05 03:33N 35°24' E 139°45'0 0.0
2016-Dec-05 02:33N 35°24' E 139°45'7 3.3
2016-Dec-05 00:19N 35°17' E 139°44'3 3.5
2016-Dec-04 23:32N 35°17' E 139°41'0 0.0
2016-Dec-04 22:33N 35°17' E 139°41'0 0.0
2016-Dec-04 21:33N 35°17' E 139°41'0 0.0
2016-Dec-04 20:33N 35°17' E 139°41'0 0.0
2016-Dec-04 19:33N 35°17' E 139°41'0 0.0
2016-Dec-04 18:33N 35°17' E 139°41'0 0.0
2016-Dec-04 17:33N 35°17' E 139°41'0 0.0
2016-Dec-04 16:33N 35°17' E 139°41'0 0.0
2016-Dec-04 15:33N 35°17' E 139°41'0 0.0
2016-Dec-04 14:33N 35°17' E 139°41'0 0.0
2016-Dec-04 13:33N 35°17' E 139°41'0 0.0
2016-Dec-04 12:33N 35°17' E 139°41'0 0.0
2016-Dec-04 11:33N 35°17' E 139°41'0 0.0
2016-Dec-04 10:33N 35°17' E 139°41'0 0.0
2016-Dec-04 09:33N 35°17' E 139°41'0 0.0
2016-Dec-04 08:33N 35°17' E 139°41'0 0.0
2016-Dec-04 07:32N 35°17' E 139°41'0 0.0
2016-Dec-04 06:33N 35°17' E 139°41'0 0.0
2016-Dec-04 05:33N 35°17' E 139°41'0 0.0
2016-Dec-04 04:33N 35°17' E 139°41'0 0.0
2016-Dec-04 03:33N 35°17' E 139°41'0 0.0
2016-Dec-04 02:33N 35°17' E 139°41'0 0.0
2016-Dec-04 01:33N 35°17' E 139°41'3 2.8
2016-Dec-04 00:33N 35°20' E 139°42'5 5.5
2016-Dec-03 23:33N 35°24' E 139°46'1110.8
2016-Dec-03 22:32N 35°13' E 139°47'3 2.3
2016-Dec-03 21:07N 35°13' E 139°43'3 4.8
2016-Dec-03 20:31N 35°15' E 139°46'1212.6
2016-Dec-03 19:33N 35°26' E 139°43'2 2.3
2016-Dec-03 18:34N 35°24' E 139°42'7 7.2
2016-Dec-03 17:33N 35°17' E 139°41'0 0.0
2016-Dec-03 16:33N 35°17' E 139°41'0 0.0
2016-Dec-03 15:33N 35°17' E 139°41'0 0.0
2016-Dec-03 14:33N 35°17' E 139°41'0 0.0
2016-Dec-03 13:33N 35°17' E 139°41'0 0.0
2016-Dec-03 12:34N 35°17' E 139°41'5 3.8
2016-Dec-03 11:11N 35°15' E 139°46'812.3
2016-Dec-03 10:33N 35°22' E 139°42'3 2.8
2016-Dec-03 09:33N 35°24' E 139°45'0 0.0
2016-Dec-03 08:34N 35°24' E 139°45'0 0.0
2016-Dec-03 07:34N 35°24' E 139°45'0 0.0
2016-Dec-03 06:34N 35°24' E 139°45'0 0.0
2016-Dec-03 05:34N 35°24' E 139°45'9 8.4
2016-Dec-03 04:32N 35°29' E 139°53'8 8.3
2016-Dec-03 03:34N 35°24' E 139°46'1410.8
2016-Dec-03 02:16N 35°10' E 139°46'8 8.7
2016-Dec-03 01:23N 35°17' E 139°44'3 3.3
2016-Dec-03 00:28N 35°17' E 139°41'0 0.0
2016-Dec-02 23:26N 35°17' E 139°41'0 0.0
2016-Dec-02 22:29N 35°17' E 139°41'0 0.0
2016-Dec-02 21:26N 35°17' E 139°41'0 0.0
2016-Dec-02 20:30N 35°17' E 139°41'0 0.0
2016-Dec-02 19:33N 35°17' E 139°41'0 0.0
2016-Dec-02 18:26N 35°17' E 139°41'0 0.0
2016-Dec-02 17:33N 35°17' E 139°41'0 0.0
2016-Dec-02 16:33N 35°17' E 139°41'0 0.0
2016-Dec-02 15:32N 35°17' E 139°41'0 0.0
2016-Dec-02 14:29N 35°17' E 139°41'0 0.0
2016-Dec-02 13:30N 35°17' E 139°41'5 0.5
2016-Dec-02 02:33N 35°22' E 139°42'8 3.6
2016-Dec-02 00:15N 35°15' E 139°46'5 2.7
2016-Dec-01 22:27N 35°17' E 139°41'1 1.3
2016-Dec-01 21:33N 35°18' E 139°42'1 1.2
2016-Dec-01 20:33N 35°17' E 139°41'0 0.0
2016-Dec-01 19:33N 35°17' E 139°41'0 0.0
2016-Dec-01 18:33N 35°17' E 139°41'0 0.0
2016-Dec-01 17:33N 35°17' E 139°41'0 0.0
2016-Dec-01 16:33N 35°17' E 139°41'0 0.0
2016-Dec-01 15:33N 35°17' E 139°41'0 0.0
2016-Dec-01 14:33N 35°17' E 139°41'0 0.0
2016-Dec-01 13:33N 35°17' E 139°41'0 0.0
2016-Dec-01 12:31N 35°17' E 139°41'0 0.0
2016-Dec-01 11:33N 35°17' E 139°41'0 0.0
2016-Dec-01 10:33N 35°17' E 139°41'0 0.0
2016-Dec-01 09:33N 35°17' E 139°41'0 0.0
2016-Dec-01 08:33N 35°17' E 139°41'0 0.0
2016-Dec-01 07:33N 35°17' E 139°41'0 0.0
2016-Dec-01 06:33N 35°17' E 139°41'0 0.0
2016-Dec-01 05:33N 35°17' E 139°41'0 0.0
2016-Dec-01 04:33N 35°17' E 139°41'0 0.0
2016-Dec-01 03:32N 35°17' E 139°41'0 0.0
2016-Dec-01 02:33N 35°17' E 139°41'0 0.0
2016-Dec-01 01:32N 35°17' E 139°41'0 0.0
2016-Dec-01 00:34N 35°17' E 139°41'2 1.8
2016-Nov-30 23:31N 35°18' E 139°39'2 2.2
2016-Nov-30 22:33N 35°19' E 139°41'2 2.2
2016-Nov-30 21:29N 35°17' E 139°41'0 0.0
2016-Nov-30 20:33N 35°17' E 139°41'0 0.0
2016-Nov-30 19:33N 35°17' E 139°41'0 0.0
2016-Nov-30 18:33N 35°17' E 139°41'0 0.0
2016-Nov-30 17:33N 35°17' E 139°41'0 0.0
2016-Nov-30 16:33N 35°17' E 139°41'0 0.0
2016-Nov-30 15:33N 35°17' E 139°41'0 0.0
2016-Nov-30 14:33N 35°17' E 139°41'0 0.0
2016-Nov-30 13:33N 35°17' E 139°41'0 0.0
2016-Nov-30 12:33N 35°17' E 139°41'0 0.0
2016-Nov-30 11:31N 35°17' E 139°41'0 0.0
2016-Nov-30 10:32N 35°17' E 139°41'0 0.0
2016-Nov-30 09:33N 35°17' E 139°41'0 0.0
2016-Nov-30 08:33N 35°17' E 139°41'0 0.0
2016-Nov-30 07:33N 35°17' E 139°41'0 0.0
2016-Nov-30 06:33N 35°17' E 139°41'6 4.9
2016-Nov-30 05:25N 35°14' E 139°46'1011.9
2016-Nov-30 04:34N 35°24' E 139°43'1310.6
2016-Nov-30 03:22N 35°29' E 139°57'2 2.5
2016-Nov-30 02:23N 35°29' E 139°54'7 8.2
2016-Nov-30 01:33N 35°25' E 139°47'1610.8
2016-Nov-30 00:06N 35°09' E 139°47'5 6.5
2016-Nov-29 23:22N 35°13' E 139°43'0 0.0
2016-Nov-29 12:10N 35°13' E 139°43'6 9.3
2016-Nov-29 11:33N 35°19' E 139°43'6 5.7
2016-Nov-29 10:34N 35°20' E 139°49'2 2.4
2016-Nov-29 09:32N 35°22' E 139°48'7 3.4
2016-Nov-29 07:33N 35°18' E 139°42'6 6.0
2016-Nov-29 06:33N 35°24' E 139°42'3 3.3
2016-Nov-29 05:33N 35°27' E 139°42'0 0.0
2016-Nov-29 04:33N 35°27' E 139°42'0 0.0
2016-Nov-29 03:33N 35°27' E 139°42'0 0.0
2016-Nov-29 02:33N 35°27' E 139°42'0 0.0
2016-Nov-29 01:33N 35°27' E 139°42'0 0.0
2016-Nov-29 00:34N 35°27' E 139°42'4 4.1
2016-Nov-28 23:33N 35°25' E 139°47'1110.9
2016-Nov-28 22:32N 35°14' E 139°47'3 2.7
2016-Nov-28 21:21N 35°13' E 139°43'  
Track history (hours):
 
Tides and Currents Weather Stations Pressure Air Temp Water Temp Dewpoint Dewpoint Depression Visibility Wind Speed Wind Dir Waves Ship Positions

Uraga Maru

Last reported at 2016-Dec-08 19:33 UTC. Time now 2016-Dec-08 20:13 UTC.
Position N 35°17' E 139°41'.

Length 40 m; draft 2.8 m.

Type: Tug. MMSI: 431101119.

Date/timePositionNaut miles runAvg speedWind from/ knotsBaromVisibWave heightAir tempDewpointWater temp
2016-Dec-08 19:33N 35°17' E 139°41'0 0.0
2016-Dec-08 18:33N 35°17' E 139°41'0 0.0
2016-Dec-08 17:33N 35°17' E 139°41'0 0.0
2016-Dec-08 16:33N 35°17' E 139°41'0 0.0
2016-Dec-08 15:33N 35°17' E 139°41'0 0.0
2016-Dec-08 14:33N 35°17' E 139°41'0 0.0
2016-Dec-08 13:33N 35°17' E 139°41'0 0.0
2016-Dec-08 12:33N 35°17' E 139°41'0 0.0
2016-Dec-08 11:32N 35°17' E 139°41'0 0.0
2016-Dec-08 10:33N 35°17' E 139°41'0 0.0
2016-Dec-08 09:32N 35°17' E 139°41'0 0.0
2016-Dec-08 08:33N 35°17' E 139°41'0 0.0
2016-Dec-08 07:33N 35°17' E 139°41'0 0.0
2016-Dec-08 06:33N 35°17' E 139°41'0 0.0
2016-Dec-08 05:33N 35°17' E 139°41'0 0.0
2016-Dec-08 04:33N 35°17' E 139°41'0 0.0
2016-Dec-08 03:33N 35°17' E 139°41'0 0.0
2016-Dec-08 02:33N 35°17' E 139°41'7 6.7
2016-Dec-08 01:33N 35°23' E 139°44'6 5.0
2016-Dec-08 00:18N 35°27' E 139°50'810.6
2016-Dec-07 23:33N 35°21' E 139°45'7 5.0
2016-Dec-07 22:06N 35°14' E 139°46'611.1
2016-Dec-07 21:32N 35°19' E 139°42'4 4.0
2016-Dec-07 20:33N 35°22' E 139°45'1212.0
2016-Dec-07 19:33N 35°10' E 139°47'4 1.0
2016-Dec-07 15:07N 35°13' E 139°43'3 5.2
2016-Dec-07 14:32N 35°14' E 139°46'1010.6
2016-Dec-07 13:34N 35°24' E 139°44'1 1.3
2016-Dec-07 12:34N 35°23' E 139°44'5 5.4
2016-Dec-07 11:34N 35°19' E 139°40'2 1.7
2016-Dec-07 10:33N 35°18' E 139°42'5 0.1
2016-Dec-05 17:33N 35°23' E 139°42'6 1.9
2016-Dec-05 14:32N 35°24' E 139°49'6 1.1
2016-Dec-05 08:29N 35°23' E 139°41'1 1.2
2016-Dec-05 07:31N 35°23' E 139°40'0 0.0
2016-Dec-05 06:33N 35°23' E 139°40'2 0.9
2016-Dec-05 04:33N 35°23' E 139°42'3 2.7
2016-Dec-05 03:33N 35°24' E 139°45'0 0.0
2016-Dec-05 02:33N 35°24' E 139°45'7 3.3
2016-Dec-05 00:19N 35°17' E 139°44'3 3.5
2016-Dec-04 23:32N 35°17' E 139°41'0 0.0
2016-Dec-04 22:33N 35°17' E 139°41'0 0.0
2016-Dec-04 21:33N 35°17' E 139°41'0 0.0
2016-Dec-04 20:33N 35°17' E 139°41'0 0.0
2016-Dec-04 19:33N 35°17' E 139°41'0 0.0
2016-Dec-04 18:33N 35°17' E 139°41'0 0.0
2016-Dec-04 17:33N 35°17' E 139°41'0 0.0
2016-Dec-04 16:33N 35°17' E 139°41'0 0.0
2016-Dec-04 15:33N 35°17' E 139°41'0 0.0
2016-Dec-04 14:33N 35°17' E 139°41'0 0.0
2016-Dec-04 13:33N 35°17' E 139°41'0 0.0
2016-Dec-04 12:33N 35°17' E 139°41'0 0.0
2016-Dec-04 11:33N 35°17' E 139°41'0 0.0
2016-Dec-04 10:33N 35°17' E 139°41'0 0.0
2016-Dec-04 09:33N 35°17' E 139°41'0 0.0
2016-Dec-04 08:33N 35°17' E 139°41'0 0.0
2016-Dec-04 07:32N 35°17' E 139°41'0 0.0
2016-Dec-04 06:33N 35°17' E 139°41'0 0.0
2016-Dec-04 05:33N 35°17' E 139°41'0 0.0
2016-Dec-04 04:33N 35°17' E 139°41'0 0.0
2016-Dec-04 03:33N 35°17' E 139°41'0 0.0
2016-Dec-04 02:33N 35°17' E 139°41'0 0.0
2016-Dec-04 01:33N 35°17' E 139°41'3 2.8
2016-Dec-04 00:33N 35°20' E 139°42'5 5.5
2016-Dec-03 23:33N 35°24' E 139°46'1110.8
2016-Dec-03 22:32N 35°13' E 139°47'3 2.3
2016-Dec-03 21:07N 35°13' E 139°43'3 4.8
2016-Dec-03 20:31N 35°15' E 139°46'1212.6
2016-Dec-03 19:33N 35°26' E 139°43'2 2.3
2016-Dec-03 18:34N 35°24' E 139°42'7 7.2
2016-Dec-03 17:33N 35°17' E 139°41'0 0.0
2016-Dec-03 16:33N 35°17' E 139°41'0 0.0
2016-Dec-03 15:33N 35°17' E 139°41'0 0.0
2016-Dec-03 14:33N 35°17' E 139°41'0 0.0
2016-Dec-03 13:33N 35°17' E 139°41'0 0.0
2016-Dec-03 12:34N 35°17' E 139°41'5 3.8
2016-Dec-03 11:11N 35°15' E 139°46'812.3
2016-Dec-03 10:33N 35°22' E 139°42'3 2.8
2016-Dec-03 09:33N 35°24' E 139°45'0 0.0
2016-Dec-03 08:34N 35°24' E 139°45'0 0.0
2016-Dec-03 07:34N 35°24' E 139°45'0 0.0
2016-Dec-03 06:34N 35°24' E 139°45'0 0.0
2016-Dec-03 05:34N 35°24' E 139°45'9 8.4
2016-Dec-03 04:32N 35°29' E 139°53'8 8.3
2016-Dec-03 03:34N 35°24' E 139°46'1410.8
2016-Dec-03 02:16N 35°10' E 139°46'8 8.7
2016-Dec-03 01:23N 35°17' E 139°44'3 3.3
2016-Dec-03 00:28N 35°17' E 139°41'0 0.0
2016-Dec-02 23:26N 35°17' E 139°41'0 0.0
2016-Dec-02 22:29N 35°17' E 139°41'0 0.0
2016-Dec-02 21:26N 35°17' E 139°41'0 0.0
2016-Dec-02 20:30N 35°17' E 139°41'0 0.0
2016-Dec-02 19:33N 35°17' E 139°41'0 0.0
2016-Dec-02 18:26N 35°17' E 139°41'0 0.0
2016-Dec-02 17:33N 35°17' E 139°41'0 0.0
2016-Dec-02 16:33N 35°17' E 139°41'0 0.0
2016-Dec-02 15:32N 35°17' E 139°41'0 0.0
2016-Dec-02 14:29N 35°17' E 139°41'0 0.0
2016-Dec-02 13:30N 35°17' E 139°41'5 0.5
2016-Dec-02 02:33N 35°22' E 139°42'8 3.6
2016-Dec-02 00:15N 35°15' E 139°46'5 2.7
2016-Dec-01 22:27N 35°17' E 139°41'1 1.3
2016-Dec-01 21:33N 35°18' E 139°42'1 1.2
2016-Dec-01 20:33N 35°17' E 139°41'0 0.0
2016-Dec-01 19:33N 35°17' E 139°41'0 0.0
2016-Dec-01 18:33N 35°17' E 139°41'0 0.0
2016-Dec-01 17:33N 35°17' E 139°41'0 0.0
2016-Dec-01 16:33N 35°17' E 139°41'0 0.0
2016-Dec-01 15:33N 35°17' E 139°41'0 0.0
2016-Dec-01 14:33N 35°17' E 139°41'0 0.0
2016-Dec-01 13:33N 35°17' E 139°41'0 0.0
2016-Dec-01 12:31N 35°17' E 139°41'0 0.0
2016-Dec-01 11:33N 35°17' E 139°41'0 0.0
2016-Dec-01 10:33N 35°17' E 139°41'0 0.0
2016-Dec-01 09:33N 35°17' E 139°41'0 0.0
2016-Dec-01 08:33N 35°17' E 139°41'0 0.0
2016-Dec-01 07:33N 35°17' E 139°41'0 0.0
2016-Dec-01 06:33N 35°17' E 139°41'0 0.0
2016-Dec-01 05:33N 35°17' E 139°41'0 0.0
2016-Dec-01 04:33N 35°17' E 139°41'0 0.0
2016-Dec-01 03:32N 35°17' E 139°41'0 0.0
2016-Dec-01 02:33N 35°17' E 139°41'0 0.0
2016-Dec-01 01:32N 35°17' E 139°41'0 0.0
2016-Dec-01 00:34N 35°17' E 139°41'2 1.8
2016-Nov-30 23:31N 35°18' E 139°39'2 2.2
2016-Nov-30 22:33N 35°19' E 139°41'2 2.2
2016-Nov-30 21:29N 35°17' E 139°41'0 0.0
2016-Nov-30 20:33N 35°17' E 139°41'0 0.0
2016-Nov-30 19:33N 35°17' E 139°41'0 0.0
2016-Nov-30 18:33N 35°17' E 139°41'0 0.0
2016-Nov-30 17:33N 35°17' E 139°41'0 0.0
2016-Nov-30 16:33N 35°17' E 139°41'0 0.0
2016-Nov-30 15:33N 35°17' E 139°41'0 0.0
2016-Nov-30 14:33N 35°17' E 139°41'0 0.0
2016-Nov-30 13:33N 35°17' E 139°41'0 0.0
2016-Nov-30 12:33N 35°17' E 139°41'0 0.0
2016-Nov-30 11:31N 35°17' E 139°41'0 0.0
2016-Nov-30 10:32N 35°17' E 139°41'0 0.0
2016-Nov-30 09:33N 35°17' E 139°41'0 0.0
2016-Nov-30 08:33N 35°17' E 139°41'0 0.0
2016-Nov-30 07:33N 35°17' E 139°41'0 0.0
2016-Nov-30 06:33N 35°17' E 139°41'6 4.9
2016-Nov-30 05:25N 35°14' E 139°46'1011.9
2016-Nov-30 04:34N 35°24' E 139°43'1310.6
2016-Nov-30 03:22N 35°29' E 139°57'2 2.5
2016-Nov-30 02:23N 35°29' E 139°54'7 8.2
2016-Nov-30 01:33N 35°25' E 139°47'1610.8
2016-Nov-30 00:06N 35°09' E 139°47'5 6.5
2016-Nov-29 23:22N 35°13' E 139°43'0 0.0
2016-Nov-29 12:10N 35°13' E 139°43'6 9.3
2016-Nov-29 11:33N 35°19' E 139°43'6 5.7
2016-Nov-29 10:34N 35°20' E 139°49'2 2.4
2016-Nov-29 09:32N 35°22' E 139°48'7 3.4
2016-Nov-29 07:33N 35°18' E 139°42'6 6.0
2016-Nov-29 06:33N 35°24' E 139°42'3 3.3
2016-Nov-29 05:33N 35°27' E 139°42'0 0.0
2016-Nov-29 04:33N 35°27' E 139°42'0 0.0
2016-Nov-29 03:33N 35°27' E 139°42'0 0.0
2016-Nov-29 02:33N 35°27' E 139°42'0 0.0
2016-Nov-29 01:33N 35°27' E 139°42'0 0.0
2016-Nov-29 00:34N 35°27' E 139°42'4 4.1
2016-Nov-28 23:33N 35°25' E 139°47'1110.9
2016-Nov-28 22:32N 35°14' E 139°47'3 2.7
2016-Nov-28 21:21N 35°13' E 139°43'  

Dump ship's entire track history